Aviation Digital Data Service (ADDS)

Output produced by METARs form (0413 UTC 31 August 2014)
found at http://www.aviationweather.gov/adds/metars/
 
METAR text: KCCU 310356Z AUTO 22011G17KT 10SM CLR 09/00 A3046 RMK AO2
Conditions at: KCCU (RED CLIFF PASS , CO, US) observed 0356 UTC 31 August 2014
Temperature: 9.0°C (48°F)
Dewpoint: 0.0°C (32°F) [RH = 53%]
Pressure (altimeter): 30.46 inches Hg (1031.6 mb)
Winds: from the SW (220 degrees) at 13 MPH (11 knots; 5.7 m/s)
gusting to 20 MPH (17 knots; 8.8 m/s)
Visibility: 10 or more miles (16+ km)
Ceiling: at least 12,000 feet AGL
Clouds: sky clear below 12,000 feet AGL
Weather: automated observation with no human augmentation;
there may or may not be significant weather present at this time